sensor_id;sensor_type;location;lat;lon;timestamp;P1;durP1;ratioP1;P2;durP2;ratioP2
63581;SDS011;49727;51.078;17.066;2022-09-12T00:04:10;8.50;;;6.40;;
63581;SDS011;49727;51.078;17.066;2022-09-12T00:19:11;8.93;;;5.40;;
63581;SDS011;49727;51.078;17.066;2022-09-12T00:34:11;6.37;;;4.77;;
63581;SDS011;49727;51.078;17.066;2022-09-12T00:49:13;8.27;;;4.63;;
63581;SDS011;49727;51.078;17.066;2022-09-12T01:04:26;5.80;;;4.30;;
63581;SDS011;49727;51.078;17.066;2022-09-12T01:35:03;6.83;;;3.97;;
63581;SDS011;49727;51.078;17.066;2022-09-12T02:06:17;7.33;;;3.77;;
63581;SDS011;49727;51.078;17.066;2022-09-12T02:20:51;8.70;;;3.87;;
63581;SDS011;49727;51.078;17.066;2022-09-12T02:35:57;6.20;;;3.90;;
63581;SDS011;49727;51.078;17.066;2022-09-12T02:51:05;11.20;;;3.80;;
63581;SDS011;49727;51.078;17.066;2022-09-12T03:06:17;7.03;;;4.18;;
63581;SDS011;49727;51.078;17.066;2022-09-12T03:21:32;9.23;;;3.87;;
63581;SDS011;49727;51.078;17.066;2022-09-12T03:36:40;7.57;;;3.97;;
63581;SDS011;49727;51.078;17.066;2022-09-12T03:51:41;6.72;;;4.57;;
63581;SDS011;49727;51.078;17.066;2022-09-12T04:06:42;8.93;;;4.97;;
63581;SDS011;49727;51.078;17.066;2022-09-12T04:21:43;8.40;;;4.82;;
63581;SDS011;49727;51.078;17.066;2022-09-12T04:36:43;7.45;;;4.28;;
63581;SDS011;49727;51.078;17.066;2022-09-12T04:51:43;8.25;;;3.97;;
63581;SDS011;49727;51.078;17.066;2022-09-12T05:06:45;7.63;;;4.70;;
63581;SDS011;49727;51.078;17.066;2022-09-12T05:21:46;8.67;;;4.23;;
63581;SDS011;49727;51.078;17.066;2022-09-12T05:36:46;7.72;;;4.60;;
63581;SDS011;49727;51.078;17.066;2022-09-12T05:51:47;13.80;;;4.38;;
63581;SDS011;49727;51.078;17.066;2022-09-12T06:06:47;12.82;;;4.88;;
63581;SDS011;49727;51.078;17.066;2022-09-12T06:21:48;7.32;;;4.20;;
63581;SDS011;49727;51.078;17.066;2022-09-12T06:36:49;9.23;;;3.27;;
63581;SDS011;49727;51.078;17.066;2022-09-12T06:51:49;6.80;;;3.03;;
63581;SDS011;49727;51.078;17.066;2022-09-12T07:06:50;5.63;;;2.13;;
63581;SDS011;49727;51.078;17.066;2022-09-12T07:21:50;4.65;;;2.13;;
63581;SDS011;49727;51.078;17.066;2022-09-12T07:36:50;5.75;;;2.17;;
63581;SDS011;49727;51.078;17.066;2022-09-12T07:51:50;5.23;;;2.20;;
63581;SDS011;49727;51.078;17.066;2022-09-12T08:06:51;5.90;;;2.77;;
63581;SDS011;49727;51.078;17.066;2022-09-12T08:21:52;8.97;;;1.50;;
63581;SDS011;49727;51.078;17.066;2022-09-12T08:36:52;5.28;;;2.00;;
63581;SDS011;49727;51.078;17.066;2022-09-12T08:51:54;4.10;;;1.90;;
63581;SDS011;49727;51.078;17.066;2022-09-12T09:22:01;4.23;;;1.73;;
63581;SDS011;49727;51.078;17.066;2022-09-12T09:52:29;4.93;;;2.83;;
63581;SDS011;49727;51.078;17.066;2022-09-12T10:07:31;8.23;;;2.27;;
63581;SDS011;49727;51.078;17.066;2022-09-12T10:22:32;6.30;;;2.53;;
63581;SDS011;49727;51.078;17.066;2022-09-12T10:37:35;5.30;;;1.73;;
63581;SDS011;49727;51.078;17.066;2022-09-12T10:52:38;3.93;;;1.70;;
63581;SDS011;49727;51.078;17.066;2022-09-12T11:07:48;5.80;;;1.80;;
63581;SDS011;49727;51.078;17.066;2022-09-12T11:38:45;1.97;;;1.13;;
63581;SDS011;49727;51.078;17.066;2022-09-12T11:53:57;4.73;;;1.30;;
63581;SDS011;49727;51.078;17.066;2022-09-12T12:09:02;2.03;;;1.20;;
63581;SDS011;49727;51.078;17.066;2022-09-12T13:09:43;2.57;;;1.40;;
63581;SDS011;49727;51.078;17.066;2022-09-12T13:24:47;4.53;;;1.70;;
63581;SDS011;49727;51.078;17.066;2022-09-12T13:54:57;4.57;;;2.10;;
63581;SDS011;49727;51.078;17.066;2022-09-12T14:09:59;2.47;;;1.77;;
63581;SDS011;49727;51.078;17.066;2022-09-12T14:25:00;4.77;;;1.80;;
63581;SDS011;49727;51.078;17.066;2022-09-12T14:40:01;2.60;;;1.80;;
63581;SDS011;49727;51.078;17.066;2022-09-12T14:55:26;3.80;;;1.80;;
63581;SDS011;49727;51.078;17.066;2022-09-12T15:10:37;4.37;;;1.73;;
63581;SDS011;49727;51.078;17.066;2022-09-12T15:25:38;5.37;;;1.80;;
63581;SDS011;49727;51.078;17.066;2022-09-12T15:40:39;3.00;;;1.90;;
63581;SDS011;49727;51.078;17.066;2022-09-12T15:55:39;4.80;;;2.03;;
63581;SDS011;49727;51.078;17.066;2022-09-12T16:10:41;3.42;;;1.88;;
63581;SDS011;49727;51.078;17.066;2022-09-12T16:25:42;7.43;;;2.50;;
63581;SDS011;49727;51.078;17.066;2022-09-12T16:40:43;11.88;;;3.47;;
63581;SDS011;49727;51.078;17.066;2022-09-12T16:55:49;7.55;;;3.22;;
63581;SDS011;49727;51.078;17.066;2022-09-12T17:10:50;6.27;;;3.40;;
63581;SDS011;49727;51.078;17.066;2022-09-12T17:25:50;10.07;;;3.38;;
63581;SDS011;49727;51.078;17.066;2022-09-12T17:40:51;9.10;;;3.53;;
63581;SDS011;49727;51.078;17.066;2022-09-12T17:55:51;24.52;;;10.25;;
63581;SDS011;49727;51.078;17.066;2022-09-12T18:10:51;15.63;;;5.65;;
63581;SDS011;49727;51.078;17.066;2022-09-12T18:25:56;11.32;;;5.43;;
63581;SDS011;49727;51.078;17.066;2022-09-12T18:41:02;7.70;;;4.10;;
63581;SDS011;49727;51.078;17.066;2022-09-12T18:56:07;12.47;;;4.17;;
63581;SDS011;49727;51.078;17.066;2022-09-12T19:11:11;10.10;;;4.37;;
63581;SDS011;49727;51.078;17.066;2022-09-12T19:26:12;12.13;;;3.87;;
63581;SDS011;49727;51.078;17.066;2022-09-12T19:41:14;10.60;;;4.80;;
63581;SDS011;49727;51.078;17.066;2022-09-12T19:56:14;10.23;;;5.35;;
63581;SDS011;49727;51.078;17.066;2022-09-12T20:11:15;11.02;;;6.00;;
63581;SDS011;49727;51.078;17.066;2022-09-12T20:26:17;12.77;;;8.17;;
63581;SDS011;49727;51.078;17.066;2022-09-12T20:41:19;12.20;;;7.30;;
63581;SDS011;49727;51.078;17.066;2022-09-12T20:56:20;14.15;;;8.90;;
63581;SDS011;49727;51.078;17.066;2022-09-12T21:11:21;14.57;;;8.03;;
63581;SDS011;49727;51.078;17.066;2022-09-12T21:26:21;14.60;;;7.10;;
63581;SDS011;49727;51.078;17.066;2022-09-12T21:41:22;13.75;;;7.38;;
63581;SDS011;49727;51.078;17.066;2022-09-12T21:56:22;12.18;;;7.88;;
63581;SDS011;49727;51.078;17.066;2022-09-12T22:11:22;13.48;;;8.60;;
63581;SDS011;49727;51.078;17.066;2022-09-12T22:26:23;14.00;;;8.93;;
63581;SDS011;49727;51.078;17.066;2022-09-12T22:41:23;14.98;;;9.85;;
63581;SDS011;49727;51.078;17.066;2022-09-12T22:56:24;16.30;;;8.82;;
63581;SDS011;49727;51.078;17.066;2022-09-12T23:11:24;21.20;;;13.33;;
63581;SDS011;49727;51.078;17.066;2022-09-12T23:26:26;15.20;;;9.73;;
63581;SDS011;49727;51.078;17.066;2022-09-12T23:41:29;12.77;;;8.30;;
63581;SDS011;49727;51.078;17.066;2022-09-12T23:56:30;14.75;;;9.32;;
